sensor_id;sensor_type;location;lat;lon;timestamp;P1;durP1;ratioP1;P2;durP2;ratioP2
55003;SDS011;40900;52.710;6.438;2023-07-29T00:00:45;13.82;;;10.40;;
55003;SDS011;40900;52.710;6.438;2023-07-29T00:03:11;16.27;;;10.85;;
55003;SDS011;40900;52.710;6.438;2023-07-29T00:05:38;13.15;;;11.13;;
55003;SDS011;40900;52.710;6.438;2023-07-29T00:08:04;12.65;;;10.38;;
55003;SDS011;40900;52.710;6.438;2023-07-29T00:10:31;13.48;;;10.60;;
55003;SDS011;40900;52.710;6.438;2023-07-29T00:12:57;13.05;;;9.95;;
55003;SDS011;40900;52.710;6.438;2023-07-29T00:15:23;11.60;;;10.40;;
55003;SDS011;40900;52.710;6.438;2023-07-29T00:17:49;11.50;;;8.88;;
55003;SDS011;40900;52.710;6.438;2023-07-29T00:20:16;11.35;;;10.15;;
55003;SDS011;40900;52.710;6.438;2023-07-29T00:22:42;11.00;;;9.30;;
55003;SDS011;40900;52.710;6.438;2023-07-29T00:25:08;10.65;;;9.55;;
55003;SDS011;40900;52.710;6.438;2023-07-29T00:27:34;11.38;;;9.00;;
55003;SDS011;40900;52.710;6.438;2023-07-29T00:30:00;10.93;;;9.55;;
55003;SDS011;40900;52.710;6.438;2023-07-29T00:32:27;12.63;;;9.88;;
55003;SDS011;40900;52.710;6.438;2023-07-29T00:34:53;12.43;;;10.50;;
55003;SDS011;40900;52.710;6.438;2023-07-29T00:37:19;10.85;;;9.77;;
55003;SDS011;40900;52.710;6.438;2023-07-29T00:39:45;10.85;;;9.68;;
55003;SDS011;40900;52.710;6.438;2023-07-29T00:42:11;13.73;;;10.02;;
55003;SDS011;40900;52.710;6.438;2023-07-29T00:44:37;10.52;;;9.20;;
55003;SDS011;40900;52.710;6.438;2023-07-29T00:47:03;13.70;;;9.38;;
55003;SDS011;40900;52.710;6.438;2023-07-29T00:49:30;10.00;;;9.00;;
55003;SDS011;40900;52.710;6.438;2023-07-29T00:51:57;12.02;;;9.48;;
55003;SDS011;40900;52.710;6.438;2023-07-29T00:54:23;11.32;;;10.05;;
55003;SDS011;40900;52.710;6.438;2023-07-29T00:56:49;12.43;;;10.32;;
55003;SDS011;40900;52.710;6.438;2023-07-29T00:59:15;12.10;;;10.15;;
55003;SDS011;40900;52.710;6.438;2023-07-29T01:01:42;11.63;;;9.98;;
55003;SDS011;40900;52.710;6.438;2023-07-29T01:04:08;11.82;;;10.25;;
55003;SDS011;40900;52.710;6.438;2023-07-29T01:06:39;10.75;;;9.60;;
55003;SDS011;40900;52.710;6.438;2023-07-29T01:09:14;13.23;;;10.95;;
55003;SDS011;40900;52.710;6.438;2023-07-29T01:16:59;16.45;;;10.65;;
55003;SDS011;40900;52.710;6.438;2023-07-29T01:19:34;15.05;;;10.82;;
55003;SDS011;40900;52.710;6.438;2023-07-29T01:22:05;14.00;;;10.75;;
55003;SDS011;40900;52.710;6.438;2023-07-29T01:24:32;11.95;;;10.30;;
55003;SDS011;40900;52.710;6.438;2023-07-29T01:26:58;12.68;;;11.00;;
55003;SDS011;40900;52.710;6.438;2023-07-29T01:29:26;15.80;;;10.93;;
55003;SDS011;40900;52.710;6.438;2023-07-29T01:31:54;13.25;;;10.65;;
55003;SDS011;40900;52.710;6.438;2023-07-29T01:34:45;14.20;;;9.80;;
55003;SDS011;40900;52.710;6.438;2023-07-29T01:37:09;13.75;;;10.55;;
55003;SDS011;40900;52.710;6.438;2023-07-29T01:39:36;13.90;;;9.95;;
55003;SDS011;40900;52.710;6.438;2023-07-29T01:42:02;16.58;;;10.20;;
55003;SDS011;40900;52.710;6.438;2023-07-29T01:44:29;12.32;;;9.88;;
55003;SDS011;40900;52.710;6.438;2023-07-29T01:46:55;10.80;;;9.70;;
55003;SDS011;40900;52.710;6.438;2023-07-29T01:49:22;13.65;;;9.75;;
55003;SDS011;40900;52.710;6.438;2023-07-29T01:51:48;13.23;;;9.93;;
55003;SDS011;40900;52.710;6.438;2023-07-29T01:54:14;12.52;;;9.68;;
55003;SDS011;40900;52.710;6.438;2023-07-29T01:56:40;13.93;;;10.35;;
55003;SDS011;40900;52.710;6.438;2023-07-29T01:59:06;12.23;;;9.50;;
55003;SDS011;40900;52.710;6.438;2023-07-29T02:01:32;9.93;;;8.82;;
55003;SDS011;40900;52.710;6.438;2023-07-29T02:03:58;9.48;;;8.48;;
55003;SDS011;40900;52.710;6.438;2023-07-29T02:06:24;11.30;;;8.68;;
55003;SDS011;40900;52.710;6.438;2023-07-29T02:08:51;10.45;;;8.35;;
55003;SDS011;40900;52.710;6.438;2023-07-29T02:11:17;10.20;;;8.70;;
55003;SDS011;40900;52.710;6.438;2023-07-29T02:13:45;10.70;;;8.25;;
55003;SDS011;40900;52.710;6.438;2023-07-29T02:16:11;9.55;;;8.02;;
55003;SDS011;40900;52.710;6.438;2023-07-29T02:18:37;12.00;;;8.48;;
55003;SDS011;40900;52.710;6.438;2023-07-29T02:21:04;10.57;;;7.85;;
55003;SDS011;40900;52.710;6.438;2023-07-29T02:23:31;9.13;;;7.95;;
55003;SDS011;40900;52.710;6.438;2023-07-29T02:25:57;11.95;;;8.88;;
55003;SDS011;40900;52.710;6.438;2023-07-29T02:28:26;9.70;;;7.38;;
55003;SDS011;40900;52.710;6.438;2023-07-29T02:33:37;10.57;;;7.60;;
55003;SDS011;40900;52.710;6.438;2023-07-29T02:36:03;10.18;;;7.20;;
55003;SDS011;40900;52.710;6.438;2023-07-29T02:38:30;10.60;;;7.40;;
55003;SDS011;40900;52.710;6.438;2023-07-29T02:40:56;10.52;;;7.88;;
55003;SDS011;40900;52.710;6.438;2023-07-29T02:43:22;8.18;;;6.70;;
55003;SDS011;40900;52.710;6.438;2023-07-29T02:45:48;8.68;;;7.13;;
55003;SDS011;40900;52.710;6.438;2023-07-29T02:48:14;9.05;;;7.13;;
55003;SDS011;40900;52.710;6.438;2023-07-29T02:50:40;8.82;;;6.70;;
55003;SDS011;40900;52.710;6.438;2023-07-29T02:53:06;7.38;;;6.65;;
55003;SDS011;40900;52.710;6.438;2023-07-29T02:55:32;8.68;;;5.85;;
55003;SDS011;40900;52.710;6.438;2023-07-29T02:57:58;10.55;;;6.15;;
55003;SDS011;40900;52.710;6.438;2023-07-29T03:00:25;13.23;;;6.45;;
55003;SDS011;40900;52.710;6.438;2023-07-29T03:02:51;9.20;;;6.13;;
55003;SDS011;40900;52.710;6.438;2023-07-29T03:05:17;7.88;;;6.40;;
55003;SDS011;40900;52.710;6.438;2023-07-29T03:07:43;8.18;;;6.50;;
55003;SDS011;40900;52.710;6.438;2023-07-29T03:10:10;7.72;;;5.55;;
55003;SDS011;40900;52.710;6.438;2023-07-29T03:12:36;7.32;;;5.97;;
55003;SDS011;40900;52.710;6.438;2023-07-29T03:15:02;8.43;;;6.43;;
55003;SDS011;40900;52.710;6.438;2023-07-29T03:17:29;8.80;;;6.03;;
55003;SDS011;40900;52.710;6.438;2023-07-29T03:19:55;7.53;;;5.07;;
55003;SDS011;40900;52.710;6.438;2023-07-29T03:22:21;8.50;;;4.90;;
55003;SDS011;40900;52.710;6.438;2023-07-29T03:24:47;9.95;;;4.97;;
55003;SDS011;40900;52.710;6.438;2023-07-29T03:27:13;8.65;;;5.15;;
55003;SDS011;40900;52.710;6.438;2023-07-29T03:29:41;9.77;;;5.18;;
55003;SDS011;40900;52.710;6.438;2023-07-29T03:32:07;9.68;;;4.72;;
55003;SDS011;40900;52.710;6.438;2023-07-29T03:34:33;8.70;;;4.95;;
55003;SDS011;40900;52.710;6.438;2023-07-29T03:37:00;9.10;;;4.68;;
55003;SDS011;40900;52.710;6.438;2023-07-29T03:39:26;6.13;;;4.63;;
55003;SDS011;40900;52.710;6.438;2023-07-29T03:41:52;6.70;;;4.53;;
55003;SDS011;40900;52.710;6.438;2023-07-29T03:44:19;6.68;;;4.60;;
55003;SDS011;40900;52.710;6.438;2023-07-29T03:46:45;7.35;;;4.70;;
55003;SDS011;40900;52.710;6.438;2023-07-29T03:49:11;8.15;;;4.75;;
55003;SDS011;40900;52.710;6.438;2023-07-29T03:51:37;5.53;;;4.65;;
55003;SDS011;40900;52.710;6.438;2023-07-29T03:54:03;5.93;;;4.22;;
55003;SDS011;40900;52.710;6.438;2023-07-29T03:56:29;7.82;;;4.13;;
55003;SDS011;40900;52.710;6.438;2023-07-29T03:59:02;7.57;;;3.95;;
55003;SDS011;40900;52.710;6.438;2023-07-29T04:01:28;5.45;;;4.22;;
55003;SDS011;40900;52.710;6.438;2023-07-29T04:03:54;5.88;;;4.25;;
55003;SDS011;40900;52.710;6.438;2023-07-29T04:06:20;7.50;;;4.28;;
55003;SDS011;40900;52.710;6.438;2023-07-29T04:08:47;4.93;;;3.92;;
55003;SDS011;40900;52.710;6.438;2023-07-29T04:11:14;6.22;;;3.80;;
55003;SDS011;40900;52.710;6.438;2023-07-29T04:13:40;8.15;;;3.95;;
55003;SDS011;40900;52.710;6.438;2023-07-29T04:16:06;5.13;;;3.60;;
55003;SDS011;40900;52.710;6.438;2023-07-29T04:18:33;5.50;;;3.85;;
55003;SDS011;40900;52.710;6.438;2023-07-29T04:20:59;6.20;;;3.47;;
55003;SDS011;40900;52.710;6.438;2023-07-29T04:23:25;11.60;;;4.07;;
55003;SDS011;40900;52.710;6.438;2023-07-29T04:25:51;6.32;;;4.15;;
55003;SDS011;40900;52.710;6.438;2023-07-29T04:28:17;4.88;;;3.50;;
55003;SDS011;40900;52.710;6.438;2023-07-29T04:30:43;4.60;;;3.63;;
55003;SDS011;40900;52.710;6.438;2023-07-29T04:33:09;7.38;;;4.05;;
55003;SDS011;40900;52.710;6.438;2023-07-29T04:35:35;6.75;;;3.65;;
55003;SDS011;40900;52.710;6.438;2023-07-29T04:38:01;6.72;;;4.15;;
55003;SDS011;40900;52.710;6.438;2023-07-29T04:40:27;6.43;;;4.00;;
55003;SDS011;40900;52.710;6.438;2023-07-29T04:42:54;4.55;;;3.70;;
55003;SDS011;40900;52.710;6.438;2023-07-29T04:45:20;6.75;;;4.05;;
55003;SDS011;40900;52.710;6.438;2023-07-29T04:47:46;6.88;;;4.40;;
55003;SDS011;40900;52.710;6.438;2023-07-29T04:50:12;8.15;;;4.28;;
55003;SDS011;40900;52.710;6.438;2023-07-29T04:52:38;6.13;;;3.92;;
55003;SDS011;40900;52.710;6.438;2023-07-29T04:55:04;5.63;;;3.90;;
55003;SDS011;40900;52.710;6.438;2023-07-29T04:57:30;8.38;;;4.05;;
55003;SDS011;40900;52.710;6.438;2023-07-29T04:59:57;10.02;;;4.38;;
55003;SDS011;40900;52.710;6.438;2023-07-29T05:02:23;7.28;;;4.57;;
55003;SDS011;40900;52.710;6.438;2023-07-29T05:04:49;8.10;;;4.18;;
55003;SDS011;40900;52.710;6.438;2023-07-29T05:07:15;8.27;;;4.22;;
55003;SDS011;40900;52.710;6.438;2023-07-29T05:09:42;8.32;;;4.65;;
55003;SDS011;40900;52.710;6.438;2023-07-29T05:12:08;10.20;;;5.07;;
55003;SDS011;40900;52.710;6.438;2023-07-29T05:14:34;8.38;;;5.40;;
55003;SDS011;40900;52.710;6.438;2023-07-29T05:17:00;10.57;;;5.55;;
55003;SDS011;40900;52.710;6.438;2023-07-29T05:19:26;8.50;;;5.70;;
55003;SDS011;40900;52.710;6.438;2023-07-29T05:21:52;11.27;;;6.18;;
55003;SDS011;40900;52.710;6.438;2023-07-29T05:24:18;11.90;;;6.63;;
55003;SDS011;40900;52.710;6.438;2023-07-29T05:26:44;9.18;;;6.50;;
55003;SDS011;40900;52.710;6.438;2023-07-29T05:29:10;9.68;;;6.40;;
55003;SDS011;40900;52.710;6.438;2023-07-29T05:31:36;14.80;;;7.25;;
55003;SDS011;40900;52.710;6.438;2023-07-29T05:34:02;10.63;;;6.68;;
55003;SDS011;40900;52.710;6.438;2023-07-29T05:36:29;12.68;;;6.60;;
55003;SDS011;40900;52.710;6.438;2023-07-29T05:38:55;7.97;;;6.72;;
55003;SDS011;40900;52.710;6.438;2023-07-29T05:41:21;12.73;;;6.70;;
55003;SDS011;40900;52.710;6.438;2023-07-29T05:43:47;10.27;;;6.75;;
55003;SDS011;40900;52.710;6.438;2023-07-29T05:46:13;12.23;;;6.78;;
55003;SDS011;40900;52.710;6.438;2023-07-29T05:48:39;11.10;;;6.72;;
55003;SDS011;40900;52.710;6.438;2023-07-29T05:51:06;10.95;;;7.35;;
55003;SDS011;40900;52.710;6.438;2023-07-29T05:53:32;14.98;;;8.13;;
55003;SDS011;40900;52.710;6.438;2023-07-29T05:55:58;13.23;;;6.97;;
55003;SDS011;40900;52.710;6.438;2023-07-29T05:58:24;10.50;;;6.97;;
55003;SDS011;40900;52.710;6.438;2023-07-29T06:00:50;13.85;;;7.28;;
55003;SDS011;40900;52.710;6.438;2023-07-29T06:03:17;14.52;;;7.28;;
55003;SDS011;40900;52.710;6.438;2023-07-29T06:05:43;15.40;;;7.53;;
55003;SDS011;40900;52.710;6.438;2023-07-29T06:08:09;10.27;;;6.93;;
55003;SDS011;40900;52.710;6.438;2023-07-29T06:10:35;12.23;;;7.45;;
55003;SDS011;40900;52.710;6.438;2023-07-29T06:13:01;18.35;;;6.95;;
55003;SDS011;40900;52.710;6.438;2023-07-29T06:15:27;13.68;;;7.10;;
55003;SDS011;40900;52.710;6.438;2023-07-29T06:17:53;15.25;;;7.55;;
55003;SDS011;40900;52.710;6.438;2023-07-29T06:20:20;13.18;;;7.80;;
55003;SDS011;40900;52.710;6.438;2023-07-29T06:22:46;11.95;;;7.60;;
55003;SDS011;40900;52.710;6.438;2023-07-29T06:25:12;11.43;;;7.68;;
55003;SDS011;40900;52.710;6.438;2023-07-29T06:27:38;13.25;;;7.38;;
55003;SDS011;40900;52.710;6.438;2023-07-29T06:30:04;10.02;;;7.28;;
55003;SDS011;40900;52.710;6.438;2023-07-29T06:32:31;11.55;;;7.35;;
55003;SDS011;40900;52.710;6.438;2023-07-29T06:34:57;11.60;;;7.28;;
55003;SDS011;40900;52.710;6.438;2023-07-29T06:37:23;11.88;;;7.60;;
55003;SDS011;40900;52.710;6.438;2023-07-29T06:39:49;12.00;;;6.97;;
55003;SDS011;40900;52.710;6.438;2023-07-29T06:42:15;14.18;;;6.90;;
55003;SDS011;40900;52.710;6.438;2023-07-29T06:44:41;10.15;;;6.82;;
55003;SDS011;40900;52.710;6.438;2023-07-29T06:47:08;11.35;;;7.05;;
55003;SDS011;40900;52.710;6.438;2023-07-29T06:49:34;13.25;;;7.35;;
55003;SDS011;40900;52.710;6.438;2023-07-29T06:52:00;12.63;;;6.95;;
55003;SDS011;40900;52.710;6.438;2023-07-29T06:54:26;11.07;;;7.07;;
55003;SDS011;40900;52.710;6.438;2023-07-29T06:56:52;11.15;;;6.35;;
55003;SDS011;40900;52.710;6.438;2023-07-29T06:59:19;12.02;;;7.03;;
55003;SDS011;40900;52.710;6.438;2023-07-29T07:01:45;10.90;;;6.22;;
55003;SDS011;40900;52.710;6.438;2023-07-29T07:04:11;8.93;;;6.60;;
55003;SDS011;40900;52.710;6.438;2023-07-29T07:06:37;13.00;;;6.55;;
55003;SDS011;40900;52.710;6.438;2023-07-29T07:09:03;13.38;;;6.60;;
55003;SDS011;40900;52.710;6.438;2023-07-29T07:11:29;10.40;;;6.28;;
55003;SDS011;40900;52.710;6.438;2023-07-29T07:13:55;13.65;;;5.90;;
55003;SDS011;40900;52.710;6.438;2023-07-29T07:16:21;11.45;;;6.10;;
55003;SDS011;40900;52.710;6.438;2023-07-29T07:18:47;10.80;;;6.10;;
55003;SDS011;40900;52.710;6.438;2023-07-29T07:21:14;9.95;;;6.32;;
55003;SDS011;40900;52.710;6.438;2023-07-29T07:23:40;12.32;;;6.03;;
55003;SDS011;40900;52.710;6.438;2023-07-29T07:26:06;9.45;;;5.38;;
55003;SDS011;40900;52.710;6.438;2023-07-29T07:28:32;12.00;;;5.78;;
55003;SDS011;40900;52.710;6.438;2023-07-29T07:30:58;12.73;;;6.00;;
55003;SDS011;40900;52.710;6.438;2023-07-29T07:33:24;8.77;;;5.80;;
55003;SDS011;40900;52.710;6.438;2023-07-29T07:35:50;11.35;;;5.60;;
55003;SDS011;40900;52.710;6.438;2023-07-29T07:38:16;9.68;;;5.20;;
55003;SDS011;40900;52.710;6.438;2023-07-29T07:40:43;12.20;;;5.97;;
55003;SDS011;40900;52.710;6.438;2023-07-29T07:43:18;6.75;;;4.97;;
55003;SDS011;40900;52.710;6.438;2023-07-29T07:45:44;8.70;;;5.60;;
55003;SDS011;40900;52.710;6.438;2023-07-29T07:48:10;9.30;;;5.32;;
55003;SDS011;40900;52.710;6.438;2023-07-29T07:50:38;9.35;;;5.28;;
55003;SDS011;40900;52.710;6.438;2023-07-29T07:53:04;11.30;;;5.18;;
55003;SDS011;40900;52.710;6.438;2023-07-29T07:55:30;8.18;;;4.40;;
55003;SDS011;40900;52.710;6.438;2023-07-29T07:57:56;9.48;;;4.90;;
55003;SDS011;40900;52.710;6.438;2023-07-29T08:00:22;9.02;;;4.60;;
55003;SDS011;40900;52.710;6.438;2023-07-29T08:02:48;10.02;;;4.70;;
55003;SDS011;40900;52.710;6.438;2023-07-29T08:05:15;8.63;;;3.58;;
55003;SDS011;40900;52.710;6.438;2023-07-29T08:07:41;8.68;;;3.95;;
55003;SDS011;40900;52.710;6.438;2023-07-29T08:10:07;8.23;;;3.95;;
55003;SDS011;40900;52.710;6.438;2023-07-29T08:12:33;10.30;;;4.50;;
55003;SDS011;40900;52.710;6.438;2023-07-29T08:15:00;8.32;;;4.10;;
55003;SDS011;40900;52.710;6.438;2023-07-29T08:17:26;9.20;;;4.30;;
55003;SDS011;40900;52.710;6.438;2023-07-29T08:19:52;11.13;;;4.00;;
55003;SDS011;40900;52.710;6.438;2023-07-29T08:22:18;10.63;;;3.58;;
55003;SDS011;40900;52.710;6.438;2023-07-29T08:24:45;7.35;;;3.60;;
55003;SDS011;40900;52.710;6.438;2023-07-29T08:27:11;9.23;;;4.53;;
55003;SDS011;40900;52.710;6.438;2023-07-29T08:29:38;6.65;;;3.33;;
55003;SDS011;40900;52.710;6.438;2023-07-29T08:32:04;7.97;;;3.55;;
55003;SDS011;40900;52.710;6.438;2023-07-29T08:34:30;5.03;;;3.00;;
55003;SDS011;40900;52.710;6.438;2023-07-29T08:36:56;9.30;;;3.72;;
55003;SDS011;40900;52.710;6.438;2023-07-29T08:39:22;5.50;;;3.22;;
55003;SDS011;40900;52.710;6.438;2023-07-29T08:41:59;10.68;;;4.15;;
55003;SDS011;40900;52.710;6.438;2023-07-29T08:44:31;8.07;;;3.58;;
55003;SDS011;40900;52.710;6.438;2023-07-29T08:47:02;6.60;;;3.00;;
55003;SDS011;40900;52.710;6.438;2023-07-29T08:49:28;7.13;;;3.15;;
55003;SDS011;40900;52.710;6.438;2023-07-29T08:51:54;7.35;;;2.70;;
55003;SDS011;40900;52.710;6.438;2023-07-29T08:54:22;6.60;;;3.10;;
55003;SDS011;40900;52.710;6.438;2023-07-29T08:56:48;6.82;;;2.60;;
55003;SDS011;40900;52.710;6.438;2023-07-29T08:59:14;8.80;;;3.10;;
55003;SDS011;40900;52.710;6.438;2023-07-29T09:01:42;6.13;;;2.75;;
55003;SDS011;40900;52.710;6.438;2023-07-29T09:04:08;5.93;;;2.58;;
55003;SDS011;40900;52.710;6.438;2023-07-29T09:06:36;4.65;;;2.13;;
55003;SDS011;40900;52.710;6.438;2023-07-29T09:09:05;7.03;;;2.70;;
55003;SDS011;40900;52.710;6.438;2023-07-29T09:11:33;7.32;;;2.10;;
55003;SDS011;40900;52.710;6.438;2023-07-29T09:13:59;6.75;;;2.45;;
55003;SDS011;40900;52.710;6.438;2023-07-29T09:16:25;6.88;;;2.08;;
55003;SDS011;40900;52.710;6.438;2023-07-29T09:18:51;6.28;;;2.00;;
55003;SDS011;40900;52.710;6.438;2023-07-29T09:21:24;9.50;;;2.50;;
55003;SDS011;40900;52.710;6.438;2023-07-29T09:23:51;5.68;;;2.30;;
55003;SDS011;40900;52.710;6.438;2023-07-29T09:26:27;6.43;;;2.28;;
55003;SDS011;40900;52.710;6.438;2023-07-29T09:28:54;5.35;;;2.28;;
55003;SDS011;40900;52.710;6.438;2023-07-29T09:31:22;4.30;;;2.30;;
55003;SDS011;40900;52.710;6.438;2023-07-29T09:33:48;7.70;;;2.70;;
55003;SDS011;40900;52.710;6.438;2023-07-29T09:36:14;5.07;;;2.40;;
55003;SDS011;40900;52.710;6.438;2023-07-29T09:38:40;6.93;;;2.40;;
55003;SDS011;40900;52.710;6.438;2023-07-29T09:41:06;6.10;;;2.65;;
55003;SDS011;40900;52.710;6.438;2023-07-29T09:43:33;9.73;;;2.50;;
55003;SDS011;40900;52.710;6.438;2023-07-29T09:46:00;5.43;;;2.40;;
55003;SDS011;40900;52.710;6.438;2023-07-29T09:48:34;4.82;;;2.25;;
55003;SDS011;40900;52.710;6.438;2023-07-29T09:51:09;4.38;;;2.28;;
55003;SDS011;40900;52.710;6.438;2023-07-29T09:53:42;5.05;;;2.30;;
55003;SDS011;40900;52.710;6.438;2023-07-29T09:56:09;4.25;;;2.50;;
55003;SDS011;40900;52.710;6.438;2023-07-29T09:58:35;4.53;;;2.25;;
55003;SDS011;40900;52.710;6.438;2023-07-29T10:01:03;5.95;;;2.47;;
55003;SDS011;40900;52.710;6.438;2023-07-29T10:03:31;6.90;;;2.17;;
55003;SDS011;40900;52.710;6.438;2023-07-29T10:05:59;4.75;;;2.45;;
55003;SDS011;40900;52.710;6.438;2023-07-29T10:08:29;5.47;;;2.30;;
55003;SDS011;40900;52.710;6.438;2023-07-29T10:10:57;3.65;;;2.20;;
55003;SDS011;40900;52.710;6.438;2023-07-29T10:13:26;5.90;;;2.53;;
55003;SDS011;40900;52.710;6.438;2023-07-29T10:15:56;5.82;;;1.95;;
55003;SDS011;40900;52.710;6.438;2023-07-29T10:18:22;5.95;;;2.20;;
55003;SDS011;40900;52.710;6.438;2023-07-29T10:20:50;6.07;;;2.70;;
55003;SDS011;40900;52.710;6.438;2023-07-29T10:23:20;4.47;;;2.40;;
55003;SDS011;40900;52.710;6.438;2023-07-29T10:25:54;5.78;;;2.08;;
55003;SDS011;40900;52.710;6.438;2023-07-29T10:28:25;6.82;;;2.45;;
55003;SDS011;40900;52.710;6.438;2023-07-29T10:30:54;5.00;;;2.22;;
55003;SDS011;40900;52.710;6.438;2023-07-29T10:33:21;6.82;;;2.53;;
55003;SDS011;40900;52.710;6.438;2023-07-29T10:35:47;4.93;;;2.55;;
55003;SDS011;40900;52.710;6.438;2023-07-29T10:38:12;4.93;;;2.63;;
55003;SDS011;40900;52.710;6.438;2023-07-29T10:40:43;5.40;;;2.97;;
55003;SDS011;40900;52.710;6.438;2023-07-29T10:43:19;5.82;;;3.42;;
55003;SDS011;40900;52.710;6.438;2023-07-29T10:45:58;5.22;;;3.28;;
55003;SDS011;40900;52.710;6.438;2023-07-29T10:51:22;10.57;;;3.25;;
55003;SDS011;40900;52.710;6.438;2023-07-29T10:53:54;7.70;;;2.88;;
55003;SDS011;40900;52.710;6.438;2023-07-29T10:56:49;5.60;;;2.65;;
55003;SDS011;40900;52.710;6.438;2023-07-29T11:01:59;4.80;;;2.72;;
55003;SDS011;40900;52.710;6.438;2023-07-29T11:04:27;7.93;;;3.28;;
55003;SDS011;40900;52.710;6.438;2023-07-29T11:12:51;4.68;;;2.60;;
55003;SDS011;40900;52.710;6.438;2023-07-29T11:15:25;9.55;;;3.17;;
55003;SDS011;40900;52.710;6.438;2023-07-29T11:17:54;8.70;;;2.92;;
55003;SDS011;40900;52.710;6.438;2023-07-29T11:20:33;5.90;;;2.85;;
55003;SDS011;40900;52.710;6.438;2023-07-29T11:23:00;5.53;;;2.47;;
55003;SDS011;40900;52.710;6.438;2023-07-29T11:25:29;5.28;;;2.58;;
55003;SDS011;40900;52.710;6.438;2023-07-29T11:27:57;5.95;;;2.35;;
55003;SDS011;40900;52.710;6.438;2023-07-29T11:30:24;4.85;;;2.58;;
55003;SDS011;40900;52.710;6.438;2023-07-29T11:32:54;4.50;;;2.25;;
55003;SDS011;40900;52.710;6.438;2023-07-29T11:35:21;4.05;;;2.40;;
55003;SDS011;40900;52.710;6.438;2023-07-29T11:37:48;4.25;;;2.00;;
55003;SDS011;40900;52.710;6.438;2023-07-29T11:40:20;9.57;;;2.50;;
55003;SDS011;40900;52.710;6.438;2023-07-29T11:42:47;6.38;;;2.45;;
55003;SDS011;40900;52.710;6.438;2023-07-29T11:45:17;5.82;;;2.72;;
55003;SDS011;40900;52.710;6.438;2023-07-29T11:47:45;9.35;;;2.80;;
55003;SDS011;40900;52.710;6.438;2023-07-29T11:50:11;4.00;;;2.25;;
55003;SDS011;40900;52.710;6.438;2023-07-29T11:52:42;4.47;;;2.80;;
55003;SDS011;40900;52.710;6.438;2023-07-29T11:55:10;10.40;;;2.85;;
55003;SDS011;40900;52.710;6.438;2023-07-29T11:57:37;5.55;;;2.53;;
55003;SDS011;40900;52.710;6.438;2023-07-29T12:00:05;5.78;;;2.65;;
55003;SDS011;40900;52.710;6.438;2023-07-29T12:02:39;6.85;;;2.63;;
55003;SDS011;40900;52.710;6.438;2023-07-29T12:05:06;5.32;;;2.53;;
55003;SDS011;40900;52.710;6.438;2023-07-29T12:07:34;3.92;;;2.20;;
55003;SDS011;40900;52.710;6.438;2023-07-29T12:10:01;3.80;;;2.20;;
55003;SDS011;40900;52.710;6.438;2023-07-29T12:12:28;4.50;;;2.60;;
55003;SDS011;40900;52.710;6.438;2023-07-29T12:14:54;8.13;;;2.35;;
55003;SDS011;40900;52.710;6.438;2023-07-29T12:17:20;4.93;;;2.58;;
55003;SDS011;40900;52.710;6.438;2023-07-29T12:19:46;4.88;;;2.30;;
55003;SDS011;40900;52.710;6.438;2023-07-29T12:22:12;5.53;;;2.53;;
55003;SDS011;40900;52.710;6.438;2023-07-29T12:24:45;9.55;;;2.42;;
55003;SDS011;40900;52.710;6.438;2023-07-29T12:27:12;7.32;;;2.30;;
55003;SDS011;40900;52.710;6.438;2023-07-29T12:29:39;3.97;;;2.10;;
55003;SDS011;40900;52.710;6.438;2023-07-29T12:32:09;7.20;;;2.38;;
55003;SDS011;40900;52.710;6.438;2023-07-29T12:34:35;5.28;;;2.65;;
55003;SDS011;40900;52.710;6.438;2023-07-29T12:37:03;5.68;;;3.60;;
55003;SDS011;40900;52.710;6.438;2023-07-29T12:39:31;8.02;;;2.35;;
55003;SDS011;40900;52.710;6.438;2023-07-29T12:41:59;6.43;;;2.30;;
55003;SDS011;40900;52.710;6.438;2023-07-29T12:44:30;4.20;;;2.08;;
55003;SDS011;40900;52.710;6.438;2023-07-29T12:46:58;4.53;;;2.33;;
55003;SDS011;40900;52.710;6.438;2023-07-29T12:49:25;7.05;;;2.60;;
55003;SDS011;40900;52.710;6.438;2023-07-29T12:51:53;10.82;;;2.78;;
55003;SDS011;40900;52.710;6.438;2023-07-29T12:54:19;5.72;;;2.40;;
55003;SDS011;40900;52.710;6.438;2023-07-29T12:56:44;7.45;;;2.40;;
55003;SDS011;40900;52.710;6.438;2023-07-29T12:59:10;7.63;;;2.38;;
55003;SDS011;40900;52.710;6.438;2023-07-29T13:01:36;5.68;;;2.30;;
55003;SDS011;40900;52.710;6.438;2023-07-29T13:04:02;7.55;;;2.60;;
55003;SDS011;40900;52.710;6.438;2023-07-29T13:06:27;4.82;;;2.45;;
55003;SDS011;40900;52.710;6.438;2023-07-29T13:08:53;6.43;;;2.60;;
55003;SDS011;40900;52.710;6.438;2023-07-29T13:11:19;8.30;;;2.60;;
55003;SDS011;40900;52.710;6.438;2023-07-29T13:13:45;4.53;;;1.88;;
55003;SDS011;40900;52.710;6.438;2023-07-29T13:16:12;9.15;;;2.00;;
55003;SDS011;40900;52.710;6.438;2023-07-29T13:18:38;5.18;;;1.70;;
55003;SDS011;40900;52.710;6.438;2023-07-29T13:21:04;6.57;;;1.98;;
55003;SDS011;40900;52.710;6.438;2023-07-29T13:23:30;4.68;;;2.05;;
55003;SDS011;40900;52.710;6.438;2023-07-29T13:25:56;9.48;;;2.28;;
55003;SDS011;40900;52.710;6.438;2023-07-29T13:28:22;8.45;;;2.50;;
55003;SDS011;40900;52.710;6.438;2023-07-29T13:30:48;4.70;;;2.10;;
55003;SDS011;40900;52.710;6.438;2023-07-29T13:33:14;9.23;;;3.05;;
55003;SDS011;40900;52.710;6.438;2023-07-29T13:35:40;11.13;;;3.17;;
55003;SDS011;40900;52.710;6.438;2023-07-29T13:38:06;9.93;;;3.40;;
55003;SDS011;40900;52.710;6.438;2023-07-29T13:40:32;8.90;;;2.63;;
55003;SDS011;40900;52.710;6.438;2023-07-29T13:42:57;9.05;;;2.47;;
55003;SDS011;40900;52.710;6.438;2023-07-29T13:45:23;8.38;;;2.05;;
55003;SDS011;40900;52.710;6.438;2023-07-29T13:47:49;10.43;;;3.78;;
55003;SDS011;40900;52.710;6.438;2023-07-29T13:50:16;10.43;;;3.10;;
55003;SDS011;40900;52.710;6.438;2023-07-29T13:52:43;5.05;;;2.58;;
55003;SDS011;40900;52.710;6.438;2023-07-29T13:55:09;5.60;;;3.25;;
55003;SDS011;40900;52.710;6.438;2023-07-29T13:57:36;5.68;;;3.25;;
55003;SDS011;40900;52.710;6.438;2023-07-29T14:00:04;7.40;;;3.20;;
55003;SDS011;40900;52.710;6.438;2023-07-29T14:02:30;4.72;;;2.80;;
55003;SDS011;40900;52.710;6.438;2023-07-29T14:04:56;5.35;;;2.67;;
55003;SDS011;40900;52.710;6.438;2023-07-29T14:07:22;4.45;;;2.60;;
55003;SDS011;40900;52.710;6.438;2023-07-29T14:09:48;5.00;;;2.60;;
55003;SDS011;40900;52.710;6.438;2023-07-29T14:12:13;6.68;;;2.85;;
55003;SDS011;40900;52.710;6.438;2023-07-29T14:14:42;4.43;;;2.80;;
55003;SDS011;40900;52.710;6.438;2023-07-29T14:17:08;3.97;;;2.50;;
55003;SDS011;40900;52.710;6.438;2023-07-29T14:19:35;3.88;;;3.22;;
55003;SDS011;40900;52.710;6.438;2023-07-29T14:22:01;5.35;;;3.50;;
55003;SDS011;40900;52.710;6.438;2023-07-29T14:24:27;5.28;;;3.50;;
55003;SDS011;40900;52.710;6.438;2023-07-29T14:26:53;7.45;;;3.80;;
55003;SDS011;40900;52.710;6.438;2023-07-29T14:29:19;5.40;;;3.60;;
55003;SDS011;40900;52.710;6.438;2023-07-29T14:31:45;11.25;;;5.55;;
55003;SDS011;40900;52.710;6.438;2023-07-29T14:34:11;13.70;;;6.60;;
55003;SDS011;40900;52.710;6.438;2023-07-29T14:36:36;9.25;;;5.13;;
55003;SDS011;40900;52.710;6.438;2023-07-29T14:39:02;14.65;;;4.65;;
55003;SDS011;40900;52.710;6.438;2023-07-29T14:41:31;6.20;;;4.43;;
55003;SDS011;40900;52.710;6.438;2023-07-29T14:43:57;8.20;;;4.82;;
55003;SDS011;40900;52.710;6.438;2023-07-29T14:46:23;7.85;;;4.03;;
55003;SDS011;40900;52.710;6.438;2023-07-29T14:48:48;5.03;;;3.20;;
55003;SDS011;40900;52.710;6.438;2023-07-29T14:51:15;4.75;;;2.90;;
55003;SDS011;40900;52.710;6.438;2023-07-29T14:53:41;4.57;;;2.30;;
55003;SDS011;40900;52.710;6.438;2023-07-29T14:56:08;3.35;;;2.22;;
55003;SDS011;40900;52.710;6.438;2023-07-29T14:58:34;3.80;;;2.35;;
55003;SDS011;40900;52.710;6.438;2023-07-29T15:01:00;3.42;;;2.00;;